sensor_id;sensor_type;location;lat;lon;timestamp;P1;durP1;ratioP1;P2;durP2;ratioP2
56455;SDS011;42354;53.218;6.564;2022-12-24T00:00:32;101.55;;;31.98;;
56455;SDS011;42354;53.218;6.564;2022-12-24T00:02:58;106.32;;;33.20;;
56455;SDS011;42354;53.218;6.564;2022-12-24T00:05:23;96.43;;;31.75;;
56455;SDS011;42354;53.218;6.564;2022-12-24T00:07:48;91.20;;;28.92;;
56455;SDS011;42354;53.218;6.564;2022-12-24T00:10:14;88.15;;;27.33;;
56455;SDS011;42354;53.218;6.564;2022-12-24T00:12:39;80.35;;;25.50;;
56455;SDS011;42354;53.218;6.564;2022-12-24T00:15:05;91.63;;;28.60;;
56455;SDS011;42354;53.218;6.564;2022-12-24T00:17:31;95.57;;;28.90;;
56455;SDS011;42354;53.218;6.564;2022-12-24T00:19:56;84.32;;;28.13;;
56455;SDS011;42354;53.218;6.564;2022-12-24T00:22:22;80.80;;;25.40;;
56455;SDS011;42354;53.218;6.564;2022-12-24T00:24:47;80.18;;;25.42;;
56455;SDS011;42354;53.218;6.564;2022-12-24T00:27:13;69.35;;;22.98;;
56455;SDS011;42354;53.218;6.564;2022-12-24T00:29:38;67.45;;;22.30;;
56455;SDS011;42354;53.218;6.564;2022-12-24T00:32:04;73.78;;;22.65;;
56455;SDS011;42354;53.218;6.564;2022-12-24T00:34:33;65.00;;;22.55;;
56455;SDS011;42354;53.218;6.564;2022-12-24T00:37:00;73.38;;;24.33;;
56455;SDS011;42354;53.218;6.564;2022-12-24T00:39:25;82.30;;;26.35;;
56455;SDS011;42354;53.218;6.564;2022-12-24T00:41:50;100.10;;;32.22;;
56455;SDS011;42354;53.218;6.564;2022-12-24T00:44:16;92.68;;;28.83;;
56455;SDS011;42354;53.218;6.564;2022-12-24T00:46:41;82.03;;;26.48;;
56455;SDS011;42354;53.218;6.564;2022-12-24T00:49:07;78.60;;;25.58;;
56455;SDS011;42354;53.218;6.564;2022-12-24T00:51:34;72.60;;;24.73;;
56455;SDS011;42354;53.218;6.564;2022-12-24T00:54:00;73.95;;;25.60;;
56455;SDS011;42354;53.218;6.564;2022-12-24T00:56:25;80.18;;;25.35;;
56455;SDS011;42354;53.218;6.564;2022-12-24T00:58:52;85.45;;;29.27;;
56455;SDS011;42354;53.218;6.564;2022-12-24T01:01:18;101.13;;;31.20;;
56455;SDS011;42354;53.218;6.564;2022-12-24T01:03:44;95.30;;;28.65;;
56455;SDS011;42354;53.218;6.564;2022-12-24T01:06:10;85.90;;;28.40;;
56455;SDS011;42354;53.218;6.564;2022-12-24T01:08:37;75.88;;;25.27;;
56455;SDS011;42354;53.218;6.564;2022-12-24T01:11:04;85.38;;;25.00;;
56455;SDS011;42354;53.218;6.564;2022-12-24T01:13:30;67.65;;;23.00;;
56455;SDS011;42354;53.218;6.564;2022-12-24T01:15:56;72.00;;;23.40;;
56455;SDS011;42354;53.218;6.564;2022-12-24T01:18:22;65.07;;;22.35;;
56455;SDS011;42354;53.218;6.564;2022-12-24T01:20:58;64.47;;;22.63;;
56455;SDS011;42354;53.218;6.564;2022-12-24T01:23:26;59.75;;;21.05;;
56455;SDS011;42354;53.218;6.564;2022-12-24T01:25:53;61.83;;;21.90;;
56455;SDS011;42354;53.218;6.564;2022-12-24T01:28:19;59.72;;;20.65;;
56455;SDS011;42354;53.218;6.564;2022-12-24T01:30:45;66.18;;;20.90;;
56455;SDS011;42354;53.218;6.564;2022-12-24T01:33:12;63.15;;;20.42;;
56455;SDS011;42354;53.218;6.564;2022-12-24T01:35:38;57.65;;;20.33;;
56455;SDS011;42354;53.218;6.564;2022-12-24T01:38:07;67.28;;;22.38;;
56455;SDS011;42354;53.218;6.564;2022-12-24T01:40:32;69.85;;;23.05;;
56455;SDS011;42354;53.218;6.564;2022-12-24T01:43:18;73.38;;;26.60;;
56455;SDS011;42354;53.218;6.564;2022-12-24T01:45:49;82.90;;;26.33;;
56455;SDS011;42354;53.218;6.564;2022-12-24T01:48:23;68.60;;;21.83;;
56455;SDS011;42354;53.218;6.564;2022-12-24T01:50:52;61.42;;;22.08;;
56455;SDS011;42354;53.218;6.564;2022-12-24T01:53:22;69.15;;;22.08;;
56455;SDS011;42354;53.218;6.564;2022-12-24T01:55:48;72.78;;;21.85;;
56455;SDS011;42354;53.218;6.564;2022-12-24T01:58:14;68.40;;;22.95;;
56455;SDS011;42354;53.218;6.564;2022-12-24T02:00:44;68.85;;;21.98;;
56455;SDS011;42354;53.218;6.564;2022-12-24T02:03:10;59.42;;;22.75;;
56455;SDS011;42354;53.218;6.564;2022-12-24T02:05:37;74.07;;;24.42;;
56455;SDS011;42354;53.218;6.564;2022-12-24T02:08:11;74.53;;;22.63;;
56455;SDS011;42354;53.218;6.564;2022-12-24T02:10:37;68.40;;;23.40;;
56455;SDS011;42354;53.218;6.564;2022-12-24T02:13:02;75.30;;;22.48;;
56455;SDS011;42354;53.218;6.564;2022-12-24T02:18:52;77.25;;;23.50;;
56455;SDS011;42354;53.218;6.564;2022-12-24T02:24:12;67.30;;;22.95;;
56455;SDS011;42354;53.218;6.564;2022-12-24T02:27:01;74.18;;;23.30;;
56455;SDS011;42354;53.218;6.564;2022-12-24T02:35:19;77.85;;;21.13;;
56455;SDS011;42354;53.218;6.564;2022-12-24T02:37:55;57.88;;;20.55;;
56455;SDS011;42354;53.218;6.564;2022-12-24T02:40:47;65.72;;;20.25;;
56455;SDS011;42354;53.218;6.564;2022-12-24T02:43:18;61.75;;;20.65;;
56455;SDS011;42354;53.218;6.564;2022-12-24T02:45:47;65.50;;;21.02;;
56455;SDS011;42354;53.218;6.564;2022-12-24T02:48:20;66.10;;;19.83;;
56455;SDS011;42354;53.218;6.564;2022-12-24T02:50:55;69.32;;;19.70;;
56455;SDS011;42354;53.218;6.564;2022-12-24T02:55:51;79.68;;;21.65;;
56455;SDS011;42354;53.218;6.564;2022-12-24T03:01:32;55.10;;;19.98;;
56455;SDS011;42354;53.218;6.564;2022-12-24T03:08:06;69.38;;;21.58;;
56455;SDS011;42354;53.218;6.564;2022-12-24T03:13:05;63.35;;;20.67;;
56455;SDS011;42354;53.218;6.564;2022-12-24T03:15:43;61.47;;;22.05;;
56455;SDS011;42354;53.218;6.564;2022-12-24T03:18:11;57.45;;;21.75;;
56455;SDS011;42354;53.218;6.564;2022-12-24T03:20:49;51.08;;;20.35;;
56455;SDS011;42354;53.218;6.564;2022-12-24T03:23:20;50.38;;;21.08;;
56455;SDS011;42354;53.218;6.564;2022-12-24T03:25:45;50.80;;;20.45;;
56455;SDS011;42354;53.218;6.564;2022-12-24T03:28:11;53.00;;;21.83;;
56455;SDS011;42354;53.218;6.564;2022-12-24T03:30:39;47.85;;;20.58;;
56455;SDS011;42354;53.218;6.564;2022-12-24T03:33:06;47.75;;;21.50;;
56455;SDS011;42354;53.218;6.564;2022-12-24T03:35:32;47.83;;;20.25;;
56455;SDS011;42354;53.218;6.564;2022-12-24T03:37:57;47.10;;;19.88;;
56455;SDS011;42354;53.218;6.564;2022-12-24T03:40:23;42.67;;;19.48;;
56455;SDS011;42354;53.218;6.564;2022-12-24T03:42:49;45.88;;;18.65;;
56455;SDS011;42354;53.218;6.564;2022-12-24T03:45:14;41.75;;;16.45;;
56455;SDS011;42354;53.218;6.564;2022-12-24T03:47:40;42.70;;;18.35;;
56455;SDS011;42354;53.218;6.564;2022-12-24T03:50:06;35.15;;;16.08;;
56455;SDS011;42354;53.218;6.564;2022-12-24T03:52:31;30.15;;;14.90;;
56455;SDS011;42354;53.218;6.564;2022-12-24T03:54:57;37.25;;;15.80;;
56455;SDS011;42354;53.218;6.564;2022-12-24T03:57:22;26.55;;;13.07;;
56455;SDS011;42354;53.218;6.564;2022-12-24T03:59:48;31.90;;;14.88;;
56455;SDS011;42354;53.218;6.564;2022-12-24T04:02:13;28.92;;;13.20;;
56455;SDS011;42354;53.218;6.564;2022-12-24T04:04:38;28.35;;;12.30;;
56455;SDS011;42354;53.218;6.564;2022-12-24T04:07:04;26.92;;;11.35;;
56455;SDS011;42354;53.218;6.564;2022-12-24T04:09:30;29.33;;;12.68;;
56455;SDS011;42354;53.218;6.564;2022-12-24T04:11:55;33.53;;;13.77;;
56455;SDS011;42354;53.218;6.564;2022-12-24T04:14:20;32.08;;;13.90;;
56455;SDS011;42354;53.218;6.564;2022-12-24T04:16:46;32.05;;;14.20;;
56455;SDS011;42354;53.218;6.564;2022-12-24T04:19:12;38.38;;;14.50;;
56455;SDS011;42354;53.218;6.564;2022-12-24T04:21:37;33.90;;;12.60;;
56455;SDS011;42354;53.218;6.564;2022-12-24T04:24:02;31.50;;;11.73;;
56455;SDS011;42354;53.218;6.564;2022-12-24T04:26:28;36.45;;;10.85;;
56455;SDS011;42354;53.218;6.564;2022-12-24T04:28:53;30.33;;;10.43;;
56455;SDS011;42354;53.218;6.564;2022-12-24T04:31:19;33.15;;;10.35;;
56455;SDS011;42354;53.218;6.564;2022-12-24T04:33:44;33.75;;;10.85;;
56455;SDS011;42354;53.218;6.564;2022-12-24T04:36:13;36.53;;;12.18;;
56455;SDS011;42354;53.218;6.564;2022-12-24T04:38:41;36.70;;;10.32;;
56455;SDS011;42354;53.218;6.564;2022-12-24T04:41:09;35.38;;;11.65;;
56455;SDS011;42354;53.218;6.564;2022-12-24T04:43:36;28.15;;;9.63;;
56455;SDS011;42354;53.218;6.564;2022-12-24T04:46:06;40.13;;;9.93;;
56455;SDS011;42354;53.218;6.564;2022-12-24T04:48:33;44.03;;;8.68;;
56455;SDS011;42354;53.218;6.564;2022-12-24T04:51:00;56.33;;;10.27;;
56455;SDS011;42354;53.218;6.564;2022-12-24T04:53:29;46.72;;;8.18;;
56455;SDS011;42354;53.218;6.564;2022-12-24T04:55:54;43.92;;;7.97;;
56455;SDS011;42354;53.218;6.564;2022-12-24T04:58:20;45.33;;;6.75;;
56455;SDS011;42354;53.218;6.564;2022-12-24T05:00:45;48.33;;;8.68;;
56455;SDS011;42354;53.218;6.564;2022-12-24T05:03:10;45.28;;;7.10;;
56455;SDS011;42354;53.218;6.564;2022-12-24T05:05:36;43.58;;;5.72;;
56455;SDS011;42354;53.218;6.564;2022-12-24T05:08:01;37.72;;;6.50;;
56455;SDS011;42354;53.218;6.564;2022-12-24T05:10:27;40.60;;;6.22;;
56455;SDS011;42354;53.218;6.564;2022-12-24T05:12:52;52.33;;;7.55;;
56455;SDS011;42354;53.218;6.564;2022-12-24T05:15:17;40.25;;;5.80;;
56455;SDS011;42354;53.218;6.564;2022-12-24T05:17:43;41.78;;;7.00;;
56455;SDS011;42354;53.218;6.564;2022-12-24T05:20:08;41.08;;;6.57;;
56455;SDS011;42354;53.218;6.564;2022-12-24T05:22:33;48.00;;;5.50;;
56455;SDS011;42354;53.218;6.564;2022-12-24T05:25:17;53.38;;;7.15;;
56455;SDS011;42354;53.218;6.564;2022-12-24T05:28:01;51.17;;;6.43;;
56455;SDS011;42354;53.218;6.564;2022-12-24T05:30:27;58.65;;;5.88;;
56455;SDS011;42354;53.218;6.564;2022-12-24T05:32:52;49.22;;;6.28;;
56455;SDS011;42354;53.218;6.564;2022-12-24T05:35:17;56.00;;;7.68;;
56455;SDS011;42354;53.218;6.564;2022-12-24T05:37:43;53.03;;;6.53;;
56455;SDS011;42354;53.218;6.564;2022-12-24T05:40:08;48.53;;;6.03;;
56455;SDS011;42354;53.218;6.564;2022-12-24T05:42:34;54.38;;;6.80;;
56455;SDS011;42354;53.218;6.564;2022-12-24T05:44:59;45.17;;;6.15;;
56455;SDS011;42354;53.218;6.564;2022-12-24T05:47:24;45.35;;;5.95;;
56455;SDS011;42354;53.218;6.564;2022-12-24T05:49:50;51.72;;;6.18;;
56455;SDS011;42354;53.218;6.564;2022-12-24T05:52:15;46.90;;;6.57;;
56455;SDS011;42354;53.218;6.564;2022-12-24T05:54:40;52.05;;;7.18;;
56455;SDS011;42354;53.218;6.564;2022-12-24T05:57:06;55.65;;;6.07;;
56455;SDS011;42354;53.218;6.564;2022-12-24T05:59:32;46.65;;;5.40;;
56455;SDS011;42354;53.218;6.564;2022-12-24T06:01:57;49.72;;;5.85;;
56455;SDS011;42354;53.218;6.564;2022-12-24T06:04:22;49.63;;;6.60;;
56455;SDS011;42354;53.218;6.564;2022-12-24T06:06:48;51.45;;;6.32;;
56455;SDS011;42354;53.218;6.564;2022-12-24T06:09:13;47.17;;;6.95;;
56455;SDS011;42354;53.218;6.564;2022-12-24T06:11:39;51.97;;;6.07;;
56455;SDS011;42354;53.218;6.564;2022-12-24T06:14:04;48.65;;;7.00;;
56455;SDS011;42354;53.218;6.564;2022-12-24T06:16:30;55.60;;;6.43;;
56455;SDS011;42354;53.218;6.564;2022-12-24T06:18:55;54.13;;;6.15;;
56455;SDS011;42354;53.218;6.564;2022-12-24T06:21:21;40.85;;;6.13;;
56455;SDS011;42354;53.218;6.564;2022-12-24T06:23:46;49.40;;;6.03;;
56455;SDS011;42354;53.218;6.564;2022-12-24T06:26:13;50.42;;;5.90;;
56455;SDS011;42354;53.218;6.564;2022-12-24T06:28:40;48.05;;;6.13;;
56455;SDS011;42354;53.218;6.564;2022-12-24T06:31:08;58.45;;;6.50;;
56455;SDS011;42354;53.218;6.564;2022-12-24T06:33:36;55.97;;;6.53;;
56455;SDS011;42354;53.218;6.564;2022-12-24T06:36:05;60.20;;;7.30;;
56455;SDS011;42354;53.218;6.564;2022-12-24T06:38:33;50.20;;;6.55;;
56455;SDS011;42354;53.218;6.564;2022-12-24T06:40:59;68.88;;;7.90;;
56455;SDS011;42354;53.218;6.564;2022-12-24T06:43:28;62.35;;;6.63;;
56455;SDS011;42354;53.218;6.564;2022-12-24T06:45:54;49.10;;;6.25;;
56455;SDS011;42354;53.218;6.564;2022-12-24T06:48:19;46.25;;;5.45;;
56455;SDS011;42354;53.218;6.564;2022-12-24T06:50:44;50.97;;;6.20;;
56455;SDS011;42354;53.218;6.564;2022-12-24T06:53:10;47.28;;;6.65;;
56455;SDS011;42354;53.218;6.564;2022-12-24T06:55:36;43.95;;;5.85;;
56455;SDS011;42354;53.218;6.564;2022-12-24T06:58:01;49.65;;;6.38;;
56455;SDS011;42354;53.218;6.564;2022-12-24T07:00:27;54.63;;;6.65;;
56455;SDS011;42354;53.218;6.564;2022-12-24T07:02:53;48.58;;;6.50;;
56455;SDS011;42354;53.218;6.564;2022-12-24T07:05:18;47.78;;;6.60;;
56455;SDS011;42354;53.218;6.564;2022-12-24T07:07:43;59.53;;;6.18;;
56455;SDS011;42354;53.218;6.564;2022-12-24T07:10:09;55.13;;;6.72;;
56455;SDS011;42354;53.218;6.564;2022-12-24T07:12:36;46.50;;;6.30;;
56455;SDS011;42354;53.218;6.564;2022-12-24T07:15:02;49.58;;;6.68;;
56455;SDS011;42354;53.218;6.564;2022-12-24T07:17:28;53.63;;;6.55;;
56455;SDS011;42354;53.218;6.564;2022-12-24T07:19:53;37.25;;;5.35;;
56455;SDS011;42354;53.218;6.564;2022-12-24T07:22:19;42.75;;;6.07;;
56455;SDS011;42354;53.218;6.564;2022-12-24T07:24:45;47.40;;;5.60;;
56455;SDS011;42354;53.218;6.564;2022-12-24T07:27:12;68.03;;;8.05;;
56455;SDS011;42354;53.218;6.564;2022-12-24T07:29:38;37.40;;;5.22;;
56455;SDS011;42354;53.218;6.564;2022-12-24T07:32:04;55.55;;;6.90;;
56455;SDS011;42354;53.218;6.564;2022-12-24T07:34:30;62.45;;;6.30;;
56455;SDS011;42354;53.218;6.564;2022-12-24T07:36:55;54.58;;;6.13;;
56455;SDS011;42354;53.218;6.564;2022-12-24T07:39:20;46.60;;;6.70;;
56455;SDS011;42354;53.218;6.564;2022-12-24T07:41:46;47.17;;;6.40;;
56455;SDS011;42354;53.218;6.564;2022-12-24T07:44:11;48.00;;;6.00;;
56455;SDS011;42354;53.218;6.564;2022-12-24T07:46:37;51.22;;;5.78;;
56455;SDS011;42354;53.218;6.564;2022-12-24T07:49:03;44.05;;;5.63;;
56455;SDS011;42354;53.218;6.564;2022-12-24T07:51:28;48.72;;;6.43;;
56455;SDS011;42354;53.218;6.564;2022-12-24T07:53:54;45.42;;;5.85;;
56455;SDS011;42354;53.218;6.564;2022-12-24T07:56:19;47.10;;;5.95;;
56455;SDS011;42354;53.218;6.564;2022-12-24T07:58:44;37.33;;;5.03;;
56455;SDS011;42354;53.218;6.564;2022-12-24T08:01:10;44.20;;;5.93;;
56455;SDS011;42354;53.218;6.564;2022-12-24T08:03:35;45.47;;;6.75;;
56455;SDS011;42354;53.218;6.564;2022-12-24T08:06:01;42.95;;;5.43;;
56455;SDS011;42354;53.218;6.564;2022-12-24T08:08:26;46.45;;;6.30;;
56455;SDS011;42354;53.218;6.564;2022-12-24T08:10:52;35.90;;;5.30;;
56455;SDS011;42354;53.218;6.564;2022-12-24T08:13:17;48.33;;;6.07;;
56455;SDS011;42354;53.218;6.564;2022-12-24T08:15:43;48.13;;;6.63;;
56455;SDS011;42354;53.218;6.564;2022-12-24T08:18:09;49.03;;;6.60;;
56455;SDS011;42354;53.218;6.564;2022-12-24T08:20:38;46.58;;;6.80;;
56455;SDS011;42354;53.218;6.564;2022-12-24T08:23:05;54.03;;;6.95;;
56455;SDS011;42354;53.218;6.564;2022-12-24T08:25:32;44.50;;;6.50;;
56455;SDS011;42354;53.218;6.564;2022-12-24T08:27:57;50.70;;;6.35;;
56455;SDS011;42354;53.218;6.564;2022-12-24T08:30:23;58.28;;;6.53;;
56455;SDS011;42354;53.218;6.564;2022-12-24T08:32:48;60.28;;;6.75;;
56455;SDS011;42354;53.218;6.564;2022-12-24T08:35:14;49.17;;;7.13;;
56455;SDS011;42354;53.218;6.564;2022-12-24T08:37:39;57.70;;;8.27;;
56455;SDS011;42354;53.218;6.564;2022-12-24T08:40:05;50.15;;;8.05;;
56455;SDS011;42354;53.218;6.564;2022-12-24T08:42:31;51.67;;;6.63;;
56455;SDS011;42354;53.218;6.564;2022-12-24T08:44:56;52.33;;;8.20;;
56455;SDS011;42354;53.218;6.564;2022-12-24T08:47:22;55.85;;;8.02;;
56455;SDS011;42354;53.218;6.564;2022-12-24T08:49:47;52.95;;;7.35;;
56455;SDS011;42354;53.218;6.564;2022-12-24T08:52:13;52.17;;;7.57;;
56455;SDS011;42354;53.218;6.564;2022-12-24T08:54:38;39.65;;;6.78;;
56455;SDS011;42354;53.218;6.564;2022-12-24T08:57:03;51.03;;;6.07;;
56455;SDS011;42354;53.218;6.564;2022-12-24T08:59:29;44.55;;;6.95;;
56455;SDS011;42354;53.218;6.564;2022-12-24T09:01:54;49.30;;;6.78;;
56455;SDS011;42354;53.218;6.564;2022-12-24T09:04:19;44.47;;;6.85;;
56455;SDS011;42354;53.218;6.564;2022-12-24T09:06:46;40.85;;;6.45;;
56455;SDS011;42354;53.218;6.564;2022-12-24T09:09:11;53.83;;;6.90;;
56455;SDS011;42354;53.218;6.564;2022-12-24T09:11:37;61.35;;;7.47;;
56455;SDS011;42354;53.218;6.564;2022-12-24T09:14:04;43.95;;;7.22;;
56455;SDS011;42354;53.218;6.564;2022-12-24T09:16:29;53.85;;;7.50;;
56455;SDS011;42354;53.218;6.564;2022-12-24T09:18:55;44.20;;;6.35;;
56455;SDS011;42354;53.218;6.564;2022-12-24T09:21:21;47.47;;;7.07;;
56455;SDS011;42354;53.218;6.564;2022-12-24T09:23:47;45.80;;;6.38;;
56455;SDS011;42354;53.218;6.564;2022-12-24T09:26:16;43.72;;;6.30;;
56455;SDS011;42354;53.218;6.564;2022-12-24T09:28:47;37.92;;;7.10;;
56455;SDS011;42354;53.218;6.564;2022-12-24T09:31:13;49.50;;;6.68;;
56455;SDS011;42354;53.218;6.564;2022-12-24T09:33:39;45.55;;;6.80;;
56455;SDS011;42354;53.218;6.564;2022-12-24T09:36:06;52.17;;;5.93;;
56455;SDS011;42354;53.218;6.564;2022-12-24T09:38:33;50.10;;;6.43;;
56455;SDS011;42354;53.218;6.564;2022-12-24T09:40:59;49.75;;;7.30;;
56455;SDS011;42354;53.218;6.564;2022-12-24T09:43:26;41.13;;;6.78;;
56455;SDS011;42354;53.218;6.564;2022-12-24T09:48:22;49.45;;;6.97;;
56455;SDS011;42354;53.218;6.564;2022-12-24T09:50:53;35.25;;;6.15;;
56455;SDS011;42354;53.218;6.564;2022-12-24T09:53:59;43.92;;;6.35;;
56455;SDS011;42354;53.218;6.564;2022-12-24T09:56:22;47.60;;;6.65;;
56455;SDS011;42354;53.218;6.564;2022-12-24T09:59:01;48.58;;;5.72;;
56455;SDS011;42354;53.218;6.564;2022-12-24T10:01:29;48.78;;;6.80;;
56455;SDS011;42354;53.218;6.564;2022-12-24T10:04:10;48.80;;;8.05;;
56455;SDS011;42354;53.218;6.564;2022-12-24T10:14:57;44.97;;;7.53;;
56455;SDS011;42354;53.218;6.564;2022-12-24T10:17:32;41.20;;;6.88;;
56455;SDS011;42354;53.218;6.564;2022-12-24T10:28:40;38.88;;;6.90;;
56455;SDS011;42354;53.218;6.564;2022-12-24T10:33:43;51.58;;;7.40;;
56455;SDS011;42354;53.218;6.564;2022-12-24T10:36:15;39.90;;;6.38;;
56455;SDS011;42354;53.218;6.564;2022-12-24T10:38:45;40.13;;;5.82;;
56455;SDS011;42354;53.218;6.564;2022-12-24T10:41:11;50.67;;;6.55;;
56455;SDS011;42354;53.218;6.564;2022-12-24T10:43:38;50.65;;;6.43;;
56455;SDS011;42354;53.218;6.564;2022-12-24T10:46:17;43.88;;;6.82;;
56455;SDS011;42354;53.218;6.564;2022-12-24T10:49:10;38.47;;;6.28;;
56455;SDS011;42354;53.218;6.564;2022-12-24T10:51:37;46.47;;;7.57;;
56455;SDS011;42354;53.218;6.564;2022-12-24T10:54:13;40.60;;;6.88;;
56455;SDS011;42354;53.218;6.564;2022-12-24T10:56:46;42.90;;;5.93;;
56455;SDS011;42354;53.218;6.564;2022-12-24T11:02:26;41.88;;;6.18;;
56455;SDS011;42354;53.218;6.564;2022-12-24T11:04:56;43.88;;;7.20;;
56455;SDS011;42354;53.218;6.564;2022-12-24T11:07:23;42.75;;;6.32;;
56455;SDS011;42354;53.218;6.564;2022-12-24T11:09:59;44.80;;;6.47;;
56455;SDS011;42354;53.218;6.564;2022-12-24T11:12:34;39.72;;;4.93;;
56455;SDS011;42354;53.218;6.564;2022-12-24T11:15:15;37.17;;;6.10;;
56455;SDS011;42354;53.218;6.564;2022-12-24T11:17:53;41.38;;;6.95;;
56455;SDS011;42354;53.218;6.564;2022-12-24T11:20:25;33.08;;;5.80;;
56455;SDS011;42354;53.218;6.564;2022-12-24T11:22:52;34.58;;;5.50;;
56455;SDS011;42354;53.218;6.564;2022-12-24T11:25:25;31.52;;;6.30;;
56455;SDS011;42354;53.218;6.564;2022-12-24T11:27:53;40.15;;;5.75;;
56455;SDS011;42354;53.218;6.564;2022-12-24T11:30:30;31.17;;;6.00;;
56455;SDS011;42354;53.218;6.564;2022-12-24T11:35:25;33.78;;;5.63;;
56455;SDS011;42354;53.218;6.564;2022-12-24T11:40:33;30.95;;;5.00;;
56455;SDS011;42354;53.218;6.564;2022-12-24T11:43:02;33.17;;;5.65;;
56455;SDS011;42354;53.218;6.564;2022-12-24T11:45:30;31.13;;;5.03;;
56455;SDS011;42354;53.218;6.564;2022-12-24T11:47:57;32.03;;;5.00;;
56455;SDS011;42354;53.218;6.564;2022-12-24T11:58:47;29.02;;;4.68;;
56455;SDS011;42354;53.218;6.564;2022-12-24T12:01:20;35.25;;;3.78;;
56455;SDS011;42354;53.218;6.564;2022-12-24T12:03:50;28.80;;;4.75;;
56455;SDS011;42354;53.218;6.564;2022-12-24T12:08:54;28.83;;;4.63;;
56455;SDS011;42354;53.218;6.564;2022-12-24T12:11:23;28.25;;;4.10;;
56455;SDS011;42354;53.218;6.564;2022-12-24T12:13:50;37.25;;;5.22;;
56455;SDS011;42354;53.218;6.564;2022-12-24T12:18:51;26.80;;;4.22;;
56455;SDS011;42354;53.218;6.564;2022-12-24T12:21:25;26.75;;;4.35;;
56455;SDS011;42354;53.218;6.564;2022-12-24T12:24:02;36.65;;;4.43;;
56455;SDS011;42354;53.218;6.564;2022-12-24T12:26:30;29.55;;;4.03;;
56455;SDS011;42354;53.218;6.564;2022-12-24T12:29:06;34.15;;;4.43;;
56455;SDS011;42354;53.218;6.564;2022-12-24T12:31:50;30.70;;;4.22;;
56455;SDS011;42354;53.218;6.564;2022-12-24T12:37:46;21.58;;;3.95;;
56455;SDS011;42354;53.218;6.564;2022-12-24T12:40:17;27.77;;;4.85;;
56455;SDS011;42354;53.218;6.564;2022-12-24T12:42:49;28.23;;;3.72;;
56455;SDS011;42354;53.218;6.564;2022-12-24T12:48:21;34.50;;;4.70;;
56455;SDS011;42354;53.218;6.564;2022-12-24T12:51:18;29.60;;;5.22;;
56455;SDS011;42354;53.218;6.564;2022-12-24T12:53:52;23.20;;;3.55;;
56455;SDS011;42354;53.218;6.564;2022-12-24T12:56:34;35.35;;;4.43;;
56455;SDS011;42354;53.218;6.564;2022-12-24T12:59:02;36.00;;;4.03;;
56455;SDS011;42354;53.218;6.564;2022-12-24T13:01:39;29.50;;;4.85;;
56455;SDS011;42354;53.218;6.564;2022-12-24T13:13:05;27.00;;;3.88;;
56455;SDS011;42354;53.218;6.564;2022-12-24T13:21:30;33.40;;;3.55;;
56455;SDS011;42354;53.218;6.564;2022-12-24T13:24:14;26.58;;;4.10;;
56455;SDS011;42354;53.218;6.564;2022-12-24T13:26:40;24.15;;;4.60;;
56455;SDS011;42354;53.218;6.564;2022-12-24T13:37:32;35.03;;;3.78;;
56455;SDS011;42354;53.218;6.564;2022-12-24T13:40:02;26.95;;;4.30;;
56455;SDS011;42354;53.218;6.564;2022-12-24T13:42:49;27.60;;;4.85;;
56455;SDS011;42354;53.218;6.564;2022-12-24T13:45:46;26.85;;;4.13;;
56455;SDS011;42354;53.218;6.564;2022-12-24T13:48:17;34.50;;;6.82;;
56455;SDS011;42354;53.218;6.564;2022-12-24T13:50:57;26.85;;;3.97;;
56455;SDS011;42354;53.218;6.564;2022-12-24T13:55:50;22.70;;;4.03;;
56455;SDS011;42354;53.218;6.564;2022-12-24T13:58:18;27.95;;;3.42;;
56455;SDS011;42354;53.218;6.564;2022-12-24T14:00:56;19.35;;;3.33;;
56455;SDS011;42354;53.218;6.564;2022-12-24T14:03:26;22.02;;;3.72;;
56455;SDS011;42354;53.218;6.564;2022-12-24T14:05:59;23.05;;;3.88;;
56455;SDS011;42354;53.218;6.564;2022-12-24T14:08:34;28.70;;;5.18;;
56455;SDS011;42354;53.218;6.564;2022-12-24T14:11:05;21.20;;;3.92;;
56455;SDS011;42354;53.218;6.564;2022-12-24T14:16:39;25.85;;;4.45;;
56455;SDS011;42354;53.218;6.564;2022-12-24T14:19:11;29.38;;;4.15;;
56455;SDS011;42354;53.218;6.564;2022-12-24T14:21:41;32.60;;;4.32;;
56455;SDS011;42354;53.218;6.564;2022-12-24T14:24:18;22.48;;;3.55;;
56455;SDS011;42354;53.218;6.564;2022-12-24T14:26:50;25.27;;;4.38;;
56455;SDS011;42354;53.218;6.564;2022-12-24T14:29:21;28.50;;;4.25;;
56455;SDS011;42354;53.218;6.564;2022-12-24T14:31:56;27.75;;;4.90;;
56455;SDS011;42354;53.218;6.564;2022-12-24T14:34:22;20.65;;;3.65;;
56455;SDS011;42354;53.218;6.564;2022-12-24T14:36:49;25.17;;;4.15;;
56455;SDS011;42354;53.218;6.564;2022-12-24T14:39:20;29.70;;;4.20;;
56455;SDS011;42354;53.218;6.564;2022-12-24T14:47:36;20.67;;;3.60;;
56455;SDS011;42354;53.218;6.564;2022-12-24T14:53:12;26.35;;;4.45;;
56455;SDS011;42354;53.218;6.564;2022-12-24T14:55:42;24.33;;;3.92;;
56455;SDS011;42354;53.218;6.564;2022-12-24T15:01:01;19.23;;;3.60;;
56455;SDS011;42354;53.218;6.564;2022-12-24T15:03:41;21.25;;;3.22;;
56455;SDS011;42354;53.218;6.564;2022-12-24T15:06:07;19.02;;;3.60;;
56455;SDS011;42354;53.218;6.564;2022-12-24T15:08:38;28.85;;;4.70;;
56455;SDS011;42354;53.218;6.564;2022-12-24T15:11:12;22.90;;;3.65;;
56455;SDS011;42354;53.218;6.564;2022-12-24T15:13:42;24.50;;;3.90;;
56455;SDS011;42354;53.218;6.564;2022-12-24T15:16:11;24.45;;;3.60;;
56455;SDS011;42354;53.218;6.564;2022-12-24T15:18:41;27.58;;;4.30;;
56455;SDS011;42354;53.218;6.564;2022-12-24T15:21:20;18.67;;;3.17;;
56455;SDS011;42354;53.218;6.564;2022-12-24T15:23:50;14.55;;;3.58;;
56455;SDS011;42354;53.218;6.564;2022-12-24T15:28:48;24.77;;;3.55;;
56455;SDS011;42354;53.218;6.564;2022-12-24T15:31:18;37.65;;;5.30;;
56455;SDS011;42354;53.218;6.564;2022-12-24T15:33:49;25.02;;;4.95;;
56455;SDS011;42354;53.218;6.564;2022-12-24T15:36:22;25.73;;;3.90;;
56455;SDS011;42354;53.218;6.564;2022-12-24T15:38:50;19.23;;;3.90;;
56455;SDS011;42354;53.218;6.564;2022-12-24T15:41:18;25.98;;;4.28;;
56455;SDS011;42354;53.218;6.564;2022-12-24T15:43:47;30.98;;;4.32;;
56455;SDS011;42354;53.218;6.564;2022-12-24T15:46:20;23.85;;;3.45;;
56455;SDS011;42354;53.218;6.564;2022-12-24T15:48:48;31.73;;;4.38;;
56455;SDS011;42354;53.218;6.564;2022-12-24T15:51:48;30.30;;;3.92;;
56455;SDS011;42354;53.218;6.564;2022-12-24T15:54:09;27.63;;;3.70;;
56455;SDS011;42354;53.218;6.564;2022-12-24T15:56:42;34.28;;;4.32;;
56455;SDS011;42354;53.218;6.564;2022-12-24T15:59:16;22.80;;;4.13;;
56455;SDS011;42354;53.218;6.564;2022-12-24T16:05:16;29.50;;;4.80;;
56455;SDS011;42354;53.218;6.564;2022-12-24T16:07:58;21.15;;;4.13;;
56455;SDS011;42354;53.218;6.564;2022-12-24T16:10:50;25.23;;;4.18;;
56455;SDS011;42354;53.218;6.564;2022-12-24T16:13:30;22.50;;;3.85;;
56455;SDS011;42354;53.218;6.564;2022-12-24T16:15:59;23.45;;;4.25;;
56455;SDS011;42354;53.218;6.564;2022-12-24T16:18:35;26.50;;;4.50;;
56455;SDS011;42354;53.218;6.564;2022-12-24T16:21:04;25.42;;;4.05;;
56455;SDS011;42354;53.218;6.564;2022-12-24T16:23:38;17.83;;;4.18;;
56455;SDS011;42354;53.218;6.564;2022-12-24T16:26:10;21.95;;;4.43;;
56455;SDS011;42354;53.218;6.564;2022-12-24T16:28:36;27.15;;;5.28;;
56455;SDS011;42354;53.218;6.564;2022-12-24T16:31:01;21.08;;;4.80;;
56455;SDS011;42354;53.218;6.564;2022-12-24T16:33:27;26.45;;;5.18;;
56455;SDS011;42354;53.218;6.564;2022-12-24T16:35:53;21.75;;;5.13;;
56455;SDS011;42354;53.218;6.564;2022-12-24T16:38:19;24.33;;;5.18;;
56455;SDS011;42354;53.218;6.564;2022-12-24T16:40:44;23.90;;;5.53;;